Time;durP1;ratioP1;P1;durP2;ratioP2;P2;SDS_P1;SDS_P2;PMS_P1;PMS_P2;Temp;Humidity;BMP_temperature;BMP_pressure;BME280_temperature;BME280_humidity;BME280_pressure;Samples;Min_cycle;Max_cycle;Signal;HPM_P1;HPM_P2
2021/08/04 00:01:08;;;;;;;12.18;4.15;;;;;;;34.34;25.66;100991.53;144992;596;6002;-83
2021/08/04 00:03:36;;;;;;;9.38;3.95;;;;;;;34.29;25.60;100989.13;144992;587;6002;-86
2021/08/04 00:06:03;;;;;;;12.63;4.37;;;;;;;34.28;25.85;100992.81;144992;581;6002;-83
2021/08/04 00:08:29;;;;;;;10.80;3.85;;;;;;;34.27;25.87;100991.09;144992;601;6002;-84
2021/08/04 00:10:57;;;;;;;9.70;3.40;;;;;;;34.27;25.46;100995.63;144992;573;6002;-85
2021/08/04 00:13:24;;;;;;;13.77;3.47;;;;;;;34.27;25.79;100995.63;144992;602;6002;-85
2021/08/04 00:15:50;;;;;;;11.32;3.45;;;;;;;34.28;25.88;101009.00;144992;693;6002;-86
2021/08/04 00:18:23;;;;;;;9.43;3.83;;;;;;;34.27;25.79;101009.94;144992;664;6002;-83
2021/08/04 00:20:49;;;;;;;9.85;3.15;;;;;;;34.25;25.76;101014.56;144992;653;6002;-84
2021/08/04 00:23:16;;;;;;;9.65;3.47;;;;;;;34.21;25.41;101013.00;144992;565;6002;-84
2021/08/04 00:25:45;;;;;;;12.60;3.10;;;;;;;34.14;25.56;101004.47;144992;578;6002;-86
2021/08/04 00:28:11;;;;;;;11.15;3.28;;;;;;;34.13;25.44;101012.63;144992;579;6002;-84
2021/08/04 00:30:38;;;;;;;11.10;3.47;;;;;;;34.12;25.32;101011.78;144992;578;6002;-84
2021/08/04 00:33:04;;;;;;;11.38;3.70;;;;;;;34.11;25.48;101006.50;144992;571;6002;-84
2021/08/04 00:35:31;;;;;;;10.60;2.97;;;;;;;34.10;25.23;101010.16;144992;599;6002;-85
2021/08/04 00:38:21;;;;;;;13.73;3.80;;;;;;;34.11;25.04;101006.50;144992;688;6002;-85
2021/08/04 00:40:49;;;;;;;16.17;4.32;;;;;;;34.12;25.19;101002.81;144992;605;6002;-84
2021/08/04 00:43:19;;;;;;;11.23;3.87;;;;;;;34.11;25.28;101001.09;144992;581;6002;-86
2021/08/04 00:45:46;;;;;;;13.57;3.80;;;;;;;34.12;25.04;100997.44;144992;607;6002;-83
2021/08/04 00:48:12;;;;;;;15.15;4.28;;;;;;;34.13;25.04;101005.41;144992;667;6002;-81
2021/08/04 00:50:39;;;;;;;15.98;4.47;;;;;;;34.13;25.13;101007.25;144992;563;6002;-86
2021/08/04 00:53:24;;;;;;;19.98;5.00;;;;;;;34.07;25.06;101010.34;144992;575;6002;-84
2021/08/04 00:55:51;;;;;;;15.15;5.55;;;;;;;34.03;25.16;101000.72;144992;701;6002;-86
2021/08/04 00:58:21;;;;;;;20.70;6.80;;;;;;;33.98;25.01;100990.25;144992;585;6002;-84
2021/08/04 01:00:56;;;;;;;23.73;6.95;;;;;;;33.90;24.98;100989.87;144992;587;6002;-84
2021/08/04 01:03:25;;;;;;;21.70;7.47;;;;;;;33.84;24.97;100998.34;144992;575;6002;-86
2021/08/04 01:05:59;;;;;;;22.92;7.72;;;;;;;33.77;24.86;100992.50;144992;573;6002;-84
2021/08/04 01:08:34;;;;;;;22.70;7.90;;;;;;;33.74;25.29;100990.88;144991;595;6002;-85
2021/08/04 01:11:04;;;;;;;26.37;8.25;;;;;;;33.73;25.47;101001.75;144992;579;6002;-83
2021/08/04 01:13:36;;;;;;;21.50;8.18;;;;;;;33.70;25.04;101004.59;144992;712;6002;-83
2021/08/04 01:16:40;;;;;;;22.23;8.07;;;;;;;33.66;25.57;101008.44;144991;587;6002;-84
2021/08/04 01:19:38;;;;;;;19.80;7.28;;;;;;;33.68;25.34;101006.50;144992;643;6004;-83
2021/08/04 01:22:30;;;;;;;21.55;7.60;;;;;;;33.75;25.57;101013.28;144992;608;6012;-84
2021/08/04 01:25:20;;;;;;;19.90;6.72;;;;;;;33.76;25.51;101013.16;144992;580;6002;-82
2021/08/04 01:27:49;;;;;;;16.90;6.20;;;;;;;33.79;25.31;101015.66;144992;669;6004;-81
2021/08/04 01:30:18;;;;;;;18.25;6.28;;;;;;;33.78;24.96;101021.16;144992;610;6004;-82
2021/08/04 01:32:45;;;;;;;16.00;6.00;;;;;;;33.74;24.48;101014.22;144992;600;6004;-83
2021/08/04 01:35:12;;;;;;;20.23;5.75;;;;;;;33.72;24.35;101010.78;144992;639;6004;-84
2021/08/04 01:37:42;;;;;;;16.42;7.03;;;;;;;33.56;25.23;101009.00;144992;597;6004;-83
2021/08/04 01:40:11;;;;;;;20.50;7.28;;;;;;;33.55;25.14;101023.44;144992;599;6004;-83
2021/08/04 01:42:41;;;;;;;19.55;6.82;;;;;;;33.53;25.35;101017.25;144992;601;6004;-83
2021/08/04 01:45:09;;;;;;;15.75;5.93;;;;;;;33.56;25.19;101014.38;144992;572;6004;-82
2021/08/04 01:47:40;;;;;;;16.40;6.20;;;;;;;33.63;25.03;101023.81;144992;572;6004;-83
2021/08/04 01:50:07;;;;;;;19.50;7.12;;;;;;;33.74;25.08;101030.37;144992;576;6004;-84
2021/08/04 01:52:36;;;;;;;21.87;7.15;;;;;;;33.80;24.90;101035.38;144991;605;6000;-83
2021/08/04 01:55:04;;;;;;;20.48;7.37;;;;;;;33.84;25.01;101022.56;144992;576;6002;-84
2021/08/04 01:57:32;;;;;;;22.20;6.28;;;;;;;33.87;24.79;101027.75;144992;598;6002;-85
2021/08/04 01:59:58;;;;;;;20.45;6.32;;;;;;;33.87;24.70;101031.34;144992;637;6002;-84
2021/08/04 02:02:25;;;;;;;19.12;7.00;;;;;;;33.87;24.74;101034.03;144992;629;6002;-83
2021/08/04 02:04:52;;;;;;;18.85;6.70;;;;;;;33.86;24.49;101029.59;144992;569;6002;-84
2021/08/04 02:07:46;;;;;;;20.30;7.03;;;;;;;33.84;24.47;101019.87;144992;604;6002;-83
2021/08/04 02:10:19;;;;;;;17.85;6.62;;;;;;;33.76;24.70;101028.47;144993;587;6002;-85
2021/08/04 02:12:51;;;;;;;20.67;5.82;;;;;;;33.71;24.32;101031.44;144993;608;6002;-85
2021/08/04 02:15:23;;;;;;;19.52;6.80;;;;;;;33.69;24.73;101019.84;144993;592;6002;-85
2021/08/04 02:18:04;;;;;;;19.00;6.43;;;;;;;33.68;24.75;101019.94;144993;587;6002;-85
2021/08/04 02:20:38;;;;;;;21.80;6.93;;;;;;;33.66;24.57;101032.66;144992;602;6002;-84
2021/08/04 02:23:23;;;;;;;;;;;;;;;33.69;24.80;101029.78;144998;913;6002;-83
2021/08/04 02:26:11;;;;;;;22.90;6.20;;;;;;;33.72;24.56;101021.53;144998;593;6002;-83
2021/08/04 02:28:40;;;;;;;21.98;6.53;;;;;;;33.71;23.89;101025.19;144993;630;6002;-83
2021/08/04 02:31:10;;;;;;;19.40;6.10;;;;;;;33.41;24.87;101029.66;144993;602;6002;-84
2021/08/04 02:33:36;;;;;;;16.45;5.25;;;;;;;33.29;24.57;101026.87;144993;587;6002;-83
2021/08/04 02:36:04;;;;;;;25.30;5.60;;;;;;;33.25;24.89;101043.19;144993;596;6002;-82
2021/08/04 02:38:32;;;;;;;19.98;5.28;;;;;;;33.24;25.16;101041.44;144993;588;6002;-84
2021/08/04 02:41:01;;;;;;;21.65;5.82;;;;;;;33.25;24.76;101043.19;144992;571;6002;-84
2021/08/04 02:43:29;;;;;;;18.37;5.72;;;;;;;33.26;25.26;101047.63;144992;653;6002;-84
2021/08/04 02:45:59;;;;;;;17.62;5.90;;;;;;;33.28;25.25;101049.34;144992;603;6002;-83
2021/08/04 02:48:27;;;;;;;15.80;5.22;;;;;;;33.30;25.36;101050.09;144992;567;6002;-84
2021/08/04 02:50:59;;;;;;;18.12;5.87;;;;;;;33.31;25.16;101057.22;144992;600;6002;-84
2021/08/04 02:53:26;;;;;;;18.48;5.78;;;;;;;33.33;25.27;101055.28;144992;574;6002;-85
2021/08/04 02:55:53;;;;;;;21.25;5.75;;;;;;;33.37;25.35;101055.00;144993;564;6002;-83
2021/08/04 02:58:20;;;;;;;18.45;5.37;;;;;;;33.39;25.52;101058.50;144993;644;6002;-84
2021/08/04 03:00:47;;;;;;;18.55;5.32;;;;;;;33.42;25.43;101065.50;144993;595;6002;-83
2021/08/04 03:03:14;;;;;;;15.23;5.72;;;;;;;33.43;25.48;101064.56;144993;584;6002;-83
2021/08/04 03:05:41;;;;;;;12.05;5.12;;;;;;;33.43;25.70;101070.78;144993;594;6002;-83
2021/08/04 03:08:08;;;;;;;14.30;5.05;;;;;;;33.46;25.67;101082.34;144993;565;6002;-84
2021/08/04 03:10:35;;;;;;;14.05;5.05;;;;;;;33.48;25.42;101075.03;144993;593;6002;-83
2021/08/04 03:13:01;;;;;;;18.12;5.07;;;;;;;33.47;25.66;101074.16;144993;569;6002;-84
2021/08/04 03:15:28;;;;;;;16.95;4.70;;;;;;;33.45;25.67;101073.38;144993;647;6002;-83
2021/08/04 03:17:55;;;;;;;11.55;4.60;;;;;;;33.42;25.67;101074.47;144993;578;6002;-84
2021/08/04 03:20:22;;;;;;;21.05;5.82;;;;;;;33.41;25.68;101072.72;144993;564;6002;-83
2021/08/04 03:22:50;;;;;;;13.43;4.82;;;;;;;33.40;25.79;101075.50;144993;610;6002;-84
2021/08/04 03:25:18;;;;;;;23.45;5.78;;;;;;;33.34;26.47;101092.88;144993;565;6002;-91
2021/08/04 03:27:45;;;;;;;16.50;4.72;;;;;;;33.35;26.09;101088.37;144992;574;6002;-85
2021/08/04 03:30:13;;;;;;;17.52;4.87;;;;;;;33.37;25.84;101083.75;144993;582;6002;-83
2021/08/04 03:32:39;;;;;;;16.10;5.15;;;;;;;33.36;26.24;101084.69;144993;583;6002;-83
2021/08/04 03:35:08;;;;;;;22.25;5.53;;;;;;;33.35;26.02;101086.53;144993;698;6002;-84
2021/08/04 03:37:35;;;;;;;19.85;5.32;;;;;;;33.35;26.18;101089.22;144993;594;6002;-85
2021/08/04 03:40:02;;;;;;;15.88;5.30;;;;;;;33.34;26.19;101086.62;144993;699;6002;-85
2021/08/04 03:42:29;;;;;;;18.35;4.93;;;;;;;33.33;26.16;101079.50;144993;590;6002;-84
2021/08/04 03:44:55;;;;;;;18.67;5.75;;;;;;;33.34;26.28;101086.62;144993;588;6002;-84
2021/08/04 03:47:23;;;;;;;16.30;5.10;;;;;;;33.34;26.64;101087.47;144993;665;6002;-83
2021/08/04 03:50:02;;;;;;;21.00;5.20;;;;;;;33.34;26.38;101087.47;144994;565;5002;-85
2021/08/04 03:52:28;;;;;;;17.37;5.53;;;;;;;33.36;26.62;101084.69;144994;582;5002;-85
2021/08/04 03:54:55;;;;;;;17.25;5.45;;;;;;;33.35;26.88;101091.91;144994;595;5002;-84
2021/08/04 03:57:23;;;;;;;12.60;5.12;;;;;;;33.36;26.83;101088.28;144994;672;5002;-85
2021/08/04 03:59:50;;;;;;;13.13;4.68;;;;;;;33.38;26.93;101088.19;144994;601;5002;-83
2021/08/04 04:02:17;;;;;;;17.33;5.35;;;;;;;33.40;26.76;101091.63;144994;564;5002;-83
2021/08/04 04:04:43;;;;;;;13.77;4.62;;;;;;;33.42;26.99;101087.03;144994;581;5002;-84
2021/08/04 04:07:10;;;;;;;20.83;5.28;;;;;;;33.40;26.85;101089.81;144994;563;5002;-83
2021/08/04 04:09:36;;;;;;;11.60;4.30;;;;;;;33.40;27.05;101100.56;144994;624;5002;-82
2021/08/04 04:12:04;;;;;;;18.62;5.05;;;;;;;33.39;27.26;101096.16;144994;570;5002;-83
2021/08/04 04:14:30;;;;;;;14.60;4.53;;;;;;;33.37;27.23;101105.28;144994;602;5002;-82
2021/08/04 04:16:57;;;;;;;15.35;4.70;;;;;;;33.35;27.08;101100.00;144994;599;5002;-82
2021/08/04 04:19:26;;;;;;;12.18;4.45;;;;;;;33.32;26.97;101102.84;144994;577;5002;-84
2021/08/04 04:21:54;;;;;;;15.18;4.72;;;;;;;33.35;27.20;101112.59;144994;581;5002;-85
2021/08/04 04:24:23;;;;;;;16.27;4.53;;;;;;;33.38;26.93;101107.03;144994;566;5002;-83
2021/08/04 04:26:51;;;;;;;17.75;4.50;;;;;;;33.44;26.98;101118.28;144994;569;5002;-83
2021/08/04 04:29:18;;;;;;;11.35;4.35;;;;;;;33.51;26.78;101116.06;144994;603;5002;-83
2021/08/04 04:31:44;;;;;;;12.93;3.90;;;;;;;33.56;26.75;101123.88;144994;596;5002;-83
2021/08/04 04:34:11;;;;;;;15.27;4.10;;;;;;;33.60;26.68;101122.72;144994;575;5002;-83
2021/08/04 04:36:37;;;;;;;14.52;4.10;;;;;;;33.65;26.47;101123.31;144994;573;5002;-84
2021/08/04 04:39:04;;;;;;;13.20;4.18;;;;;;;33.66;26.23;101129.53;144994;572;5002;-84
2021/08/04 04:41:31;;;;;;;16.60;4.32;;;;;;;33.65;26.34;101122.41;144994;611;5011;-84
2021/08/04 04:43:57;;;;;;;14.52;4.10;;;;;;;33.62;26.23;101132.44;144994;569;5002;-84
2021/08/04 04:46:24;;;;;;;9.55;3.72;;;;;;;33.59;26.20;101135.31;144994;587;5002;-83
2021/08/04 04:48:50;;;;;;;15.02;4.37;;;;;;;33.59;26.39;101138.00;144994;563;5002;-84
2021/08/04 04:51:24;;;;;;;17.42;3.83;;;;;;;33.56;26.03;101135.47;144994;564;5002;-83
2021/08/04 04:53:50;;;;;;;;;;;;;;;33.54;26.09;101141.94;144998;914;5002;-84
2021/08/04 04:56:18;;;;;;;11.77;4.10;;;;;;;33.51;26.14;101139.44;144998;607;5002;-84
2021/08/04 04:58:44;;;;;;;12.48;4.18;;;;;;;33.48;26.05;101139.63;144994;588;5002;-83
2021/08/04 05:01:11;;;;;;;15.13;3.90;;;;;;;33.46;26.31;101137.00;144994;596;5002;-84
2021/08/04 05:03:38;;;;;;;16.55;3.53;;;;;;;33.46;26.31;101136.16;144994;594;5002;-83
2021/08/04 05:06:05;;;;;;;12.20;4.05;;;;;;;33.50;26.34;101145.75;144994;673;5002;-83
2021/08/04 05:08:31;;;;;;;13.45;4.62;;;;;;;33.54;26.38;101142.78;144994;585;5002;-84
2021/08/04 05:10:57;;;;;;;12.63;3.87;;;;;;;33.57;26.36;101141.75;144994;587;5002;-83
2021/08/04 05:13:24;;;;;;;16.45;4.22;;;;;;;33.61;26.32;101148.66;144994;563;5002;-83
2021/08/04 05:15:50;;;;;;;18.80;4.53;;;;;;;33.61;26.24;101148.66;144994;665;5002;-84
2021/08/04 05:18:17;;;;;;;14.87;4.22;;;;;;;33.62;26.23;101143.19;144994;582;5002;-83
2021/08/04 05:20:56;;;;;;;14.02;5.37;;;;;;;33.65;26.18;101142.16;144994;596;5002;-84
2021/08/04 05:23:22;;;;;;;21.45;5.18;;;;;;;33.68;26.28;101144.66;144994;613;5002;-85
2021/08/04 05:25:49;;;;;;;23.15;5.05;;;;;;;33.69;26.45;101146.38;144994;585;5002;-83
2021/08/04 05:28:15;;;;;;;24.90;4.85;;;;;;;33.71;26.25;101147.19;144994;617;5002;-84
2021/08/04 05:30:42;;;;;;;18.98;4.60;;;;;;;33.74;26.29;101147.00;144994;594;5002;-83
2021/08/04 05:33:08;;;;;;;20.20;6.03;;;;;;;33.76;26.52;101149.63;144994;569;5002;-83
2021/08/04 05:35:36;;;;;;;17.33;5.20;;;;;;;33.79;26.55;101158.34;144994;704;5002;-84
2021/08/04 05:38:03;;;;;;;14.48;4.62;;;;;;;33.85;26.73;101157.09;144994;566;5002;-83
2021/08/04 05:40:29;;;;;;;19.40;5.47;;;;;;;33.90;26.88;101165.78;144994;581;5002;-83
2021/08/04 05:42:56;;;;;;;14.68;5.10;;;;;;;33.96;26.62;101154.63;144994;577;5002;-83
2021/08/04 05:45:22;;;;;;;16.62;5.30;;;;;;;34.01;26.70;101164.22;144994;570;5002;-83
2021/08/04 05:47:49;;;;;;;18.35;5.05;;;;;;;34.05;26.66;101166.66;144994;595;5002;-85
2021/08/04 05:50:15;;;;;;;18.58;5.53;;;;;;;34.06;26.63;101175.56;144994;621;5002;-84
2021/08/04 05:52:42;;;;;;;18.37;5.97;;;;;;;34.04;26.44;101169.44;144994;606;5002;-84
2021/08/04 05:55:09;;;;;;;21.92;6.20;;;;;;;34.07;26.30;101171.94;144994;573;5002;-85
2021/08/04 05:57:35;;;;;;;24.67;6.57;;;;;;;34.10;26.46;101177.13;144994;571;5002;-84
2021/08/04 06:00:03;;;;;;;19.98;6.10;;;;;;;34.16;26.46;101183.00;144994;569;5002;-83
2021/08/04 06:02:30;;;;;;;25.02;7.68;;;;;;;34.24;26.36;101179.00;144994;648;5002;-83
2021/08/04 06:04:57;;;;;;;21.05;7.55;;;;;;;34.31;26.11;101175.81;144994;595;5002;-83
2021/08/04 06:07:25;;;;;;;19.05;7.03;;;;;;;34.40;26.13;101178.91;144994;573;5002;-84
2021/08/04 06:09:52;;;;;;;16.67;6.95;;;;;;;34.50;25.96;101185.41;144994;575;5002;-84
2021/08/04 06:12:19;;;;;;;20.35;7.07;;;;;;;34.64;26.19;101184.53;144994;594;5002;-83
2021/08/04 06:14:45;;;;;;;19.85;7.32;;;;;;;34.76;25.91;101191.00;144994;609;5002;-83
2021/08/04 06:17:12;;;;;;;22.30;6.90;;;;;;;34.86;25.84;101194.84;144994;581;5002;-83
2021/08/04 06:19:38;;;;;;;20.92;6.47;;;;;;;34.94;26.15;101195.19;144994;606;5002;-83
2021/08/04 06:22:05;;;;;;;22.75;7.22;;;;;;;35.03;25.85;101197.28;144994;584;5002;-84
2021/08/04 06:24:34;;;;;;;27.92;7.12;;;;;;;35.13;25.98;101189.44;144994;617;5002;-85
2021/08/04 06:27:00;;;;;;;25.17;6.87;;;;;;;35.20;25.79;101187.19;144994;613;5002;-83
2021/08/04 06:29:27;;;;;;;17.42;6.12;;;;;;;35.27;25.77;101184.97;144994;573;5002;-83
2021/08/04 06:31:53;;;;;;;23.23;8.13;;;;;;;35.34;25.70;101184.47;144994;589;5002;-84
2021/08/04 06:34:20;;;;;;;24.98;7.12;;;;;;;35.39;25.49;101184.16;144994;623;5002;-84
2021/08/04 06:36:46;;;;;;;23.70;9.23;;;;;;;35.44;25.57;101181.16;144994;599;5002;-85
2021/08/04 06:39:13;;;;;;;22.77;7.97;;;;;;;35.50;25.32;101189.69;144993;623;5002;-83
2021/08/04 06:41:39;;;;;;;26.12;7.75;;;;;;;35.57;25.32;101190.13;144993;573;5002;-83
2021/08/04 06:44:05;;;;;;;22.48;7.18;;;;;;;35.65;25.38;101195.87;144994;595;5014;-83
2021/08/04 06:46:37;;;;;;;19.52;7.07;;;;;;;35.73;25.15;101182.72;144994;598;5002;-83
2021/08/04 06:49:06;;;;;;;23.48;8.02;;;;;;;35.79;24.87;101186.84;144994;604;5002;-84
2021/08/04 06:51:36;;;;;;;19.55;7.25;;;;;;;35.84;25.10;101184.69;144994;565;5002;-84
2021/08/04 06:54:05;;;;;;;19.80;6.97;;;;;;;35.89;25.54;101193.34;144994;570;5002;-81
2021/08/04 06:56:32;;;;;;;22.95;5.85;;;;;;;35.96;24.77;101194.62;144994;648;5002;-83
2021/08/04 06:58:58;;;;;;;21.95;6.30;;;;;;;35.84;25.71;101190.06;144994;574;5002;-83
2021/08/04 07:01:25;;;;;;;19.00;5.70;;;;;;;35.84;26.31;101191.91;144994;591;5002;-85
2021/08/04 07:03:55;;;;;;;19.08;5.90;;;;;;;35.66;26.49;101196.75;144994;579;5002;-85
2021/08/04 07:06:23;;;;;;;17.35;5.95;;;;;;;35.43;30.98;101196.47;144994;586;5002;-84
2021/08/04 07:08:50;;;;;;;25.35;6.30;;;;;;;35.33;29.48;101201.62;144994;587;5002;-84
2021/08/04 07:11:22;;;;;;;26.52;7.20;;;;;;;35.33;29.85;101193.50;144994;653;5002;-84
2021/08/04 07:13:50;;;;;;;21.80;7.05;;;;;;;35.26;33.23;101204.84;144994;608;5002;-83
2021/08/04 07:16:17;;;;;;;19.17;6.45;;;;;;;34.94;34.76;101197.88;144994;607;5002;-83
2021/08/04 07:18:44;;;;;;;19.23;6.10;;;;;;;34.58;37.95;101203.81;144994;592;5002;-83
2021/08/04 07:21:12;;;;;;;17.17;5.75;;;;;;;34.69;34.05;101194.03;144994;582;5002;-82
2021/08/04 07:23:46;;;;;;;19.87;6.00;;;;;;;34.67;34.39;101190.59;144994;576;5002;-83
2021/08/04 07:26:19;;;;;;;17.73;5.78;;;;;;;34.78;34.74;101197.16;144994;618;5002;-87
2021/08/04 07:28:46;;;;;;;17.90;6.20;;;;;;;34.81;35.62;101200.53;144994;673;5002;-83
2021/08/04 07:31:13;;;;;;;18.30;5.87;;;;;;;34.85;35.72;101201.19;144994;605;5002;-82
2021/08/04 07:33:41;;;;;;;25.15;6.03;;;;;;;34.73;37.00;101199.25;144994;668;5002;-85
2021/08/04 07:36:08;;;;;;;18.90;5.85;;;;;;;34.67;37.56;101204.06;144994;597;5003;-83
2021/08/04 07:38:42;;;;;;;18.67;5.47;;;;;;;34.40;38.53;101208.53;144994;667;5002;-84
2021/08/04 07:41:12;;;;;;;15.68;5.35;;;;;;;34.62;38.72;101213.44;144994;653;5002;-85
2021/08/04 07:43:59;;;;;;;13.90;5.28;;;;;;;34.43;39.78;101208.34;144994;570;5002;-83
2021/08/04 07:46:29;;;;;;;16.80;5.70;;;;;;;34.28;41.90;101211.06;144994;611;5002;-85
2021/08/04 07:48:57;;;;;;;14.87;5.18;;;;;;;34.20;43.02;101224.06;144994;563;5002;-82
2021/08/04 07:51:41;;;;;;;18.73;5.43;;;;;;;34.26;40.67;101202.19;144994;573;5002;-85
2021/08/04 07:54:11;;;;;;;13.73;5.30;;;;;;;34.44;40.28;101207.38;144994;569;5002;-83
2021/08/04 07:56:38;;;;;;;16.92;5.45;;;;;;;34.40;39.44;101208.53;144994;591;5002;-84
2021/08/04 07:59:04;;;;;;;15.65;5.35;;;;;;;34.34;38.30;101212.47;144994;578;5002;-83
2021/08/04 08:01:32;;;;;;;16.67;5.07;;;;;;;34.29;39.53;101210.06;144994;574;5002;-82
2021/08/04 08:03:58;;;;;;;21.92;5.50;;;;;;;34.18;38.16;101201.75;144994;588;5002;-83
2021/08/04 08:06:25;;;;;;;17.62;5.78;;;;;;;34.17;38.92;101208.09;144994;564;5002;-83
2021/08/04 08:08:51;;;;;;;13.68;5.22;;;;;;;34.05;42.70;101207.03;144994;589;5002;-82
2021/08/04 08:11:18;;;;;;;17.75;4.85;;;;;;;33.93;40.34;101192.53;144994;559;5002;-84
2021/08/04 08:13:44;;;;;;;17.55;5.00;;;;;;;34.01;40.94;101199.25;144994;650;5002;-84
2021/08/04 08:16:11;;;;;;;14.48;5.50;;;;;;;34.10;40.12;101193.28;144994;605;5002;-84
2021/08/04 08:18:38;;;;;;;13.62;5.50;;;;;;;34.16;38.63;101199.16;144994;576;5002;-84
2021/08/04 08:21:04;;;;;;;18.75;5.30;;;;;;;34.18;37.85;101182.91;144994;654;4566;-87
2021/08/04 08:23:31;;;;;;;14.48;5.15;;;;;;;34.27;37.26;101170.72;144994;585;4567;-84
2021/08/04 08:25:58;;;;;;;12.57;5.65;;;;;;;34.19;36.83;101190.03;144994;576;4572;-83
2021/08/04 08:28:24;;;;;;;14.10;5.07;;;;;;;34.27;35.95;101187.75;144992;571;6002;-84
2021/08/04 08:30:50;;;;;;;17.30;5.40;;;;;;;34.29;35.26;101177.72;144992;587;6002;-83
2021/08/04 08:33:17;;;;;;;15.77;5.20;;;;;;;34.34;35.51;101178.31;144992;589;6002;-83
2021/08/04 08:35:44;;;;;;;16.58;5.03;;;;;;;34.27;36.98;101182.37;144992;716;6002;-84
2021/08/04 08:38:10;;;;;;;19.08;5.60;;;;;;;34.23;37.60;101178.12;144992;595;6002;-84
2021/08/04 08:40:37;;;;;;;15.30;5.40;;;;;;;34.14;39.31;101167.91;144992;605;6002;-83
2021/08/04 08:43:04;;;;;;;17.12;5.28;;;;;;;34.10;40.25;101163.66;144992;600;6003;-85
2021/08/04 08:45:31;;;;;;;17.12;5.10;;;;;;;34.14;40.22;101179.53;144992;577;6002;-84
2021/08/04 08:47:58;;;;;;;14.10;4.85;;;;;;;34.12;41.23;101176.09;144992;591;6002;-85
2021/08/04 08:50:27;;;;;;;11.95;5.12;;;;;;;34.24;41.55;101169.09;144992;658;6002;-83
2021/08/04 08:52:58;;;;;;;19.90;4.90;;;;;;;34.33;42.07;101168.50;144992;564;6002;-84
2021/08/04 08:55:25;;;;;;;15.95;5.12;;;;;;;34.28;43.03;101161.66;144992;686;6002;-82
2021/08/04 08:57:53;;;;;;;18.90;5.25;;;;;;;34.29;41.80;101161.56;144992;564;6002;-83
2021/08/04 09:00:20;;;;;;;12.60;5.05;;;;;;;34.40;41.66;101154.66;144992;569;6002;-82
2021/08/04 09:02:47;;;;;;;15.52;4.93;;;;;;;34.35;42.29;101157.62;144992;593;6002;-84
2021/08/04 09:05:15;;;;;;;13.05;4.32;;;;;;;34.43;41.20;101162.53;144992;616;6002;-86
2021/08/04 09:07:44;;;;;;;23.73;4.90;;;;;;;34.55;42.71;101156.34;144992;607;6002;-81
2021/08/04 09:10:31;;;;;;;15.50;4.32;;;;;;;34.50;43.88;101150.38;144992;574;6002;-84
2021/08/04 09:13:05;;;;;;;20.98;5.80;;;;;;;34.39;46.97;101150.22;144992;570;6002;-83
2021/08/04 09:15:32;;;;;;;;;;;;;;;34.50;43.31;101142.28;144997;913;6002;-84
2021/08/04 09:18:01;;;;;;;18.02;5.12;;;;;;;34.64;44.21;101150.34;144997;591;6002;-82
2021/08/04 09:20:29;;;;;;;13.88;5.00;;;;;;;34.44;43.34;101137.31;144992;585;6002;-85
2021/08/04 09:23:02;;;;;;;19.23;4.72;;;;;;;34.66;42.34;101140.31;144991;574;6002;-84
2021/08/04 09:25:30;;;;;;;19.17;4.75;;;;;;;34.57;41.67;101138.25;144992;621;6002;-84
2021/08/04 09:27:59;;;;;;;13.02;4.53;;;;;;;34.62;40.09;101133.44;144992;583;6002;-85
2021/08/04 09:30:32;;;;;;;13.35;5.00;;;;;;;34.51;38.19;101135.97;144992;574;6002;-84
2021/08/04 09:33:26;;;;;;;16.30;4.70;;;;;;;34.51;36.99;101130.56;144992;563;6002;-83
2021/08/04 09:35:55;;;;;;;14.77;4.70;;;;;;;34.30;32.27;101117.50;144992;579;6002;-85
2021/08/04 09:38:23;;;;;;;20.65;5.10;;;;;;;34.49;34.83;101119.00;144991;574;6002;-84
2021/08/04 09:41:12;;;;;;;14.30;5.22;;;;;;;34.49;36.01;101119.00;144992;569;6002;-82
2021/08/04 09:43:39;;;;;;;19.30;4.62;;;;;;;34.49;35.55;101119.00;144992;594;6004;-83
2021/08/04 09:46:20;;;;;;;14.80;4.53;;;;;;;34.65;34.09;101108.09;144992;571;6004;-81
2021/08/04 09:48:47;;;;;;;14.70;4.32;;;;;;;34.74;32.10;101112.00;144992;657;6004;-84
2021/08/04 09:51:17;;;;;;;14.07;4.18;;;;;;;34.75;32.09;101098.47;144992;598;6004;-84
2021/08/04 09:53:49;;;;;;;14.30;4.30;;;;;;;34.75;31.96;101097.59;144992;578;6004;-82
2021/08/04 09:56:18;;;;;;;13.30;4.32;;;;;;;34.87;31.56;101094.06;144992;597;6004;-85
2021/08/04 09:58:49;;;;;;;11.60;4.15;;;;;;;34.96;31.28;101095.31;144992;587;6004;-82
2021/08/04 10:01:22;;;;;;;14.05;4.55;;;;;;;35.12;31.65;101085.19;144992;575;6004;-83
2021/08/04 10:04:09;;;;;;;15.50;4.57;;;;;;;35.17;31.38;101087.56;144992;581;6004;-82
2021/08/04 10:06:37;;;;;;;16.35;4.40;;;;;;;35.21;30.70;101084.56;144992;610;6004;-82
2021/08/04 10:09:07;;;;;;;14.68;4.00;;;;;;;35.35;29.60;101088.16;144992;580;6004;-84
2021/08/04 10:11:33;;;;;;;11.68;3.90;;;;;;;35.36;29.08;101087.22;144992;603;6004;-82
2021/08/04 10:14:00;;;;;;;17.27;3.83;;;;;;;35.45;29.18;101083.03;144992;576;6004;-83
2021/08/04 10:16:35;;;;;;;14.10;3.62;;;;;;;35.53;28.10;101086.91;144992;574;6004;-82
2021/08/04 10:19:03;;;;;;;14.85;4.30;;;;;;;35.54;27.63;101085.06;144992;606;6004;-83
2021/08/04 10:21:33;;;;;;;14.23;3.53;;;;;;;35.70;24.57;101083.03;144992;566;6004;-84
2021/08/04 10:24:06;;;;;;;13.95;3.62;;;;;;;35.87;27.30;101080.97;144992;589;6004;-84
2021/08/04 10:26:35;;;;;;;9.57;3.70;;;;;;;36.08;26.09;101068.63;144992;567;6004;-79
2021/08/04 10:29:05;;;;;;;16.73;3.55;;;;;;;36.25;25.25;101069.28;144992;594;6006;-83
2021/08/04 10:31:32;;;;;;;10.43;3.50;;;;;;;36.20;25.93;101071.41;144991;648;6000;-81
2021/08/04 10:33:59;;;;;;;8.90;3.40;;;;;;;36.31;25.29;101061.56;144992;596;6002;-85
2021/08/04 10:36:38;;;;;;;13.75;3.75;;;;;;;36.38;23.48;101061.13;144991;576;6002;-83
2021/08/04 10:39:25;;;;;;;14.23;4.25;;;;;;;36.45;22.82;101065.97;144992;602;6002;-84
2021/08/04 10:42:06;;;;;;;13.07;3.35;;;;;;;36.62;22.41;101061.13;144992;622;6002;-84
2021/08/04 10:44:34;;;;;;;11.38;3.67;;;;;;;36.69;23.11;101051.59;144992;598;6002;-86
2021/08/04 10:47:05;;;;;;;13.02;3.10;;;;;;;36.66;22.81;101057.22;144992;638;6002;-84
2021/08/04 10:49:36;;;;;;;16.08;4.05;;;;;;;36.65;21.84;101044.66;144992;609;6002;-83
2021/08/04 10:52:08;;;;;;;17.67;3.92;;;;;;;36.72;22.67;101042.34;144992;564;6002;-82
2021/08/04 10:54:34;;;;;;;11.10;3.22;;;;;;;36.90;22.41;101042.84;144992;589;6002;-84
2021/08/04 10:57:14;;;;;;;11.90;3.47;;;;;;;36.81;22.55;101052.50;144992;586;6003;-84
2021/08/04 10:59:48;;;;;;;11.55;3.80;;;;;;;36.86;21.19;101050.34;144992;606;6002;-84
2021/08/04 11:02:35;;;;;;;13.27;3.45;;;;;;;36.92;22.51;101041.72;144992;738;6002;-83
2021/08/04 11:05:01;;;;;;;8.20;3.40;;;;;;;36.84;21.06;101046.87;144992;616;6004;-84
2021/08/04 11:07:28;;;;;;;11.63;3.47;;;;;;;36.93;22.41;101045.31;144992;569;6004;-83
2021/08/04 11:09:59;;;;;;;15.82;4.32;;;;;;;36.84;23.39;101038.75;144992;702;6004;-84
2021/08/04 11:12:44;;;;;;;17.02;4.75;;;;;;;36.78;23.68;101040.09;144992;562;6004;-84
2021/08/04 11:15:29;;;;;;;12.30;3.90;;;;;;;36.85;22.37;101030.53;144992;583;6002;-82
2021/08/04 11:18:13;;;;;;;11.30;4.00;;;;;;;36.88;22.60;101023.16;144992;638;6002;-84
2021/08/04 11:21:11;;;;;;;12.30;4.85;;;;;;;36.91;22.66;101012.97;144992;632;6002;-84
2021/08/04 11:23:49;;;;;;;15.55;4.55;;;;;;;36.97;22.69;101017.91;144992;573;6004;-82
2021/08/04 11:26:24;;;;;;;11.73;3.35;;;;;;;37.06;20.83;101012.75;144992;634;6004;-85
2021/08/04 11:28:52;;;;;;;15.48;3.40;;;;;;;37.19;21.27;101014.41;144992;601;6004;-84
2021/08/04 11:31:19;;;;;;;12.50;4.00;;;;;;;37.29;21.71;101016.37;144992;587;6004;-84
2021/08/04 11:33:46;;;;;;;9.75;3.28;;;;;;;37.30;19.65;101010.00;144992;621;6004;-83
2021/08/04 11:36:27;;;;;;;13.60;3.80;;;;;;;37.34;21.47;101014.22;144992;596;6004;-82
2021/08/04 11:39:03;;;;;;;9.98;3.65;;;;;;;37.38;21.47;101013.81;144991;586;6000;-86